createdAt,value
2023-03-22T00:00:56.809Z,19.65
2023-03-22T00:04:56.892Z,19.61
2023-03-22T00:08:56.896Z,19.66
2023-03-22T00:12:57.029Z,19.61
2023-03-22T00:16:57.019Z,19.61
2023-03-22T00:20:57.128Z,19.61
2023-03-22T00:24:57.151Z,19.59
2023-03-22T00:28:57.190Z,19.57
2023-03-22T00:32:57.279Z,19.57
2023-03-22T00:36:57.309Z,19.51
2023-03-22T00:40:57.425Z,19.45
2023-03-22T00:44:57.412Z,19.43
2023-03-22T00:48:57.502Z,19.48
2023-03-22T00:52:57.537Z,19.41
2023-03-22T00:56:57.596Z,19.42
2023-03-22T01:00:57.659Z,19.47
2023-03-22T01:04:57.701Z,19.51
2023-03-22T01:08:57.723Z,19.46
2023-03-22T01:12:57.790Z,19.40
2023-03-22T01:16:57.977Z,19.38
2023-03-22T01:20:57.907Z,19.32
2023-03-22T01:24:57.989Z,19.27
2023-03-22T01:28:58.101Z,19.26
2023-03-22T01:32:58.151Z,19.27
2023-03-22T01:36:58.204Z,19.27
2023-03-22T01:40:58.275Z,19.24
2023-03-22T01:44:58.749Z,19.18
2023-03-22T01:48:58.574Z,19.15
2023-03-22T01:52:58.626Z,19.13
2023-03-22T01:56:58.750Z,19.14
2023-03-22T02:00:58.913Z,19.13
2023-03-22T02:04:59.018Z,19.09
2023-03-22T02:08:59.133Z,19.07
2023-03-22T02:12:59.274Z,19.04
2023-03-22T02:16:59.426Z,18.99
2023-03-22T02:21:01.923Z,18.96
2023-03-22T02:24:59.575Z,18.94
2023-03-22T02:28:59.550Z,18.93
2023-03-22T02:32:59.533Z,18.95
2023-03-22T02:36:59.486Z,19.01
2023-03-22T02:40:59.419Z,18.94
2023-03-22T02:44:59.435Z,18.92
2023-03-22T02:48:59.352Z,18.90
2023-03-22T02:52:59.319Z,18.89
2023-03-22T02:56:59.287Z,18.92
2023-03-22T03:00:59.300Z,18.91
2023-03-22T03:04:59.218Z,18.92
2023-03-22T03:08:59.172Z,18.93
2023-03-22T03:12:59.223Z,18.94
2023-03-22T03:16:59.382Z,18.93
2023-03-22T03:20:59.604Z,18.89
2023-03-22T03:24:59.755Z,18.84
2023-03-22T03:28:59.939Z,18.77
2023-03-22T03:32:59.908Z,18.79
2023-03-22T03:36:59.899Z,18.75
2023-03-22T03:40:59.828Z,18.74
2023-03-22T03:44:59.807Z,18.73
2023-03-22T03:48:59.759Z,18.69
2023-03-22T03:52:59.752Z,18.72
2023-03-22T03:57:00.195Z,18.67
2023-03-22T04:00:59.706Z,18.72
2023-03-22T04:04:59.637Z,18.64
2023-03-22T04:08:59.576Z,18.60
2023-03-22T04:12:59.538Z,18.59
2023-03-22T04:16:59.567Z,18.62
2023-03-22T04:20:59.507Z,18.56
2023-03-22T04:24:59.548Z,18.50
2023-03-22T04:28:59.402Z,18.48
2023-03-22T04:32:59.358Z,18.46
2023-03-22T04:36:59.346Z,18.41
2023-03-22T04:40:59.316Z,18.48
2023-03-22T04:44:59.259Z,18.44
2023-03-22T04:48:59.185Z,18.43
2023-03-22T04:52:59.180Z,18.42
2023-03-22T04:56:59.171Z,18.38
2023-03-22T05:00:59.109Z,18.36
2023-03-22T05:04:59.071Z,18.34
2023-03-22T05:08:59.044Z,18.31
2023-03-22T05:12:59.009Z,18.31
2023-03-22T05:16:58.942Z,18.36
2023-03-22T05:20:59.051Z,18.36
2023-03-22T05:24:59.071Z,18.28
2023-03-22T05:28:59.028Z,18.31
2023-03-22T05:32:59.039Z,18.24
2023-03-22T05:36:59.024Z,18.26
2023-03-22T05:40:59.049Z,18.27
2023-03-22T05:44:59.061Z,18.25
2023-03-22T05:48:59.033Z,18.27
2023-03-22T05:52:59.154Z,18.41
2023-03-22T05:56:59.125Z,18.47
2023-03-22T06:00:59.071Z,18.50
2023-03-22T06:04:59.059Z,18.52
2023-03-22T06:09:10.621Z,18.55
2023-03-22T06:13:00.634Z,18.58
2023-03-22T06:16:58.991Z,18.62
2023-03-22T06:20:59.171Z,18.64
2023-03-22T06:24:59.408Z,18.65
2023-03-22T06:28:59.634Z,18.69
2023-03-22T06:32:59.764Z,18.71
2023-03-22T06:36:59.884Z,18.77
2023-03-22T06:41:00.034Z,18.88
2023-03-22T06:45:00.605Z,19.10
2023-03-22T06:49:00.599Z,19.36
2023-03-22T06:53:00.663Z,19.58
2023-03-22T06:57:00.157Z,19.73
2023-03-22T07:01:00.641Z,19.98
2023-03-22T07:05:00.153Z,20.19
2023-03-22T07:09:00.123Z,20.33
2023-03-22T07:12:59.986Z,20.45
2023-03-22T07:17:00.116Z,20.53
2023-03-22T07:20:59.912Z,20.64
2023-03-22T07:25:01.666Z,20.73
2023-03-22T07:29:00.095Z,20.80
2023-03-22T07:33:00.595Z,20.87
2023-03-22T07:37:00.118Z,20.94
2023-03-22T07:40:59.747Z,21.01
2023-03-22T07:45:00.133Z,21.08
2023-03-22T07:48:59.685Z,21.10
2023-03-22T07:53:00.121Z,21.04
2023-03-22T07:56:59.602Z,21.12
2023-03-22T08:00:59.742Z,21.19
2023-03-22T08:05:00.123Z,21.26
2023-03-22T08:08:59.676Z,21.34
2023-03-22T08:12:59.609Z,21.41
2023-03-22T08:16:59.638Z,21.49
2023-03-22T08:20:59.590Z,21.56
2023-03-22T08:24:59.526Z,21.60
2023-03-22T08:28:59.631Z,21.67
2023-03-22T08:32:59.644Z,21.71
2023-03-22T08:36:59.648Z,21.76
2023-03-22T08:40:59.668Z,21.79
2023-03-22T08:44:59.614Z,21.80
2023-03-22T08:49:00.136Z,21.76
2023-03-22T08:53:00.151Z,21.70
2023-03-22T08:57:00.158Z,21.66
2023-03-22T09:01:00.461Z,21.65
2023-03-22T09:05:00.556Z,21.64
2023-03-22T09:09:00.771Z,21.64
2023-03-22T09:13:01.138Z,21.64
2023-03-22T09:17:01.158Z,21.64
2023-03-22T09:21:01.379Z,21.67
2023-03-22T09:25:01.648Z,21.71
2023-03-22T09:29:02.129Z,21.74
2023-03-22T09:33:01.940Z,21.78
2023-03-22T09:37:02.152Z,21.81
2023-03-22T09:41:02.365Z,21.83
2023-03-22T09:45:03.123Z,21.86
2023-03-22T09:49:02.696Z,21.89
2023-03-22T09:53:03.153Z,21.91
2023-03-22T09:57:02.910Z,21.95
2023-03-22T10:01:03.191Z,21.96
2023-03-22T10:05:03.108Z,21.98
2023-03-22T10:09:03.655Z,21.99
2023-03-22T10:13:03.384Z,21.99
2023-03-22T10:17:03.556Z,22.01
2023-03-22T10:21:04.145Z,22.04
2023-03-22T10:25:03.818Z,22.05
2023-03-22T10:29:04.186Z,22.06
2023-03-22T10:33:04.010Z,22.04
2023-03-22T10:37:04.169Z,22.08
2023-03-22T10:41:04.665Z,22.19
2023-03-22T10:45:04.699Z,22.21
2023-03-22T10:49:04.275Z,22.20
2023-03-22T10:53:04.364Z,22.16
2023-03-22T10:57:04.697Z,22.11
2023-03-22T11:01:04.613Z,22.08
2023-03-22T11:05:04.623Z,22.06
2023-03-22T11:09:04.687Z,22.07
2023-03-22T11:13:05.208Z,22.07
2023-03-22T11:17:04.884Z,22.08
2023-03-22T11:21:04.954Z,22.08
2023-03-22T11:25:05.026Z,22.08
2023-03-22T11:29:05.062Z,22.10
2023-03-22T11:33:05.184Z,22.10
2023-03-22T11:37:05.186Z,22.11
2023-03-22T11:41:05.228Z,22.13
2023-03-22T11:45:05.294Z,22.17
2023-03-22T11:49:05.740Z,22.18
2023-03-22T11:53:05.419Z,22.18
2023-03-22T11:57:05.460Z,22.19
2023-03-22T12:01:05.497Z,22.17
2023-03-22T12:05:05.806Z,22.18
2023-03-22T12:09:05.614Z,22.18
2023-03-22T12:13:05.733Z,22.19
2023-03-22T12:17:05.744Z,22.19
2023-03-22T12:21:05.796Z,22.20
2023-03-22T12:25:05.902Z,22.19
2023-03-22T12:29:06.224Z,22.19
2023-03-22T12:33:06.033Z,22.16
2023-03-22T12:37:06.228Z,22.20
2023-03-22T12:41:06.062Z,22.28
2023-03-22T12:45:06.096Z,22.30
2023-03-22T12:49:06.270Z,22.35
2023-03-22T12:53:06.055Z,22.37
2023-03-22T12:57:06.082Z,22.38
2023-03-22T13:01:06.203Z,22.40
2023-03-22T13:05:06.133Z,22.41
2023-03-22T13:09:06.134Z,22.42
2023-03-22T13:13:06.121Z,22.40
2023-03-22T13:17:06.190Z,22.39
2023-03-22T13:21:06.128Z,22.39
2023-03-22T13:25:06.123Z,22.40
2023-03-22T13:29:06.092Z,22.41
2023-03-22T13:33:06.165Z,22.41
2023-03-22T13:37:06.099Z,22.35
2023-03-22T13:41:06.116Z,22.34
2023-03-22T13:45:06.101Z,22.32
2023-03-22T13:49:06.203Z,22.34
2023-03-22T13:53:06.135Z,22.35
2023-03-22T13:57:06.105Z,22.39
2023-03-22T14:01:06.156Z,22.41
2023-03-22T14:05:13.176Z,22.39
2023-03-22T14:09:06.166Z,22.35
2023-03-22T14:13:06.132Z,22.32
2023-03-22T14:17:06.071Z,22.31
2023-03-22T14:21:06.009Z,22.28
2023-03-22T14:45:56.160Z,22.20
2023-03-22T14:49:56.133Z,22.19
2023-03-22T14:53:56.113Z,22.19
2023-03-22T14:57:56.077Z,22.17
2023-03-22T15:01:56.045Z,22.15
2023-03-22T15:05:55.986Z,22.15
2023-03-22T15:09:55.959Z,22.15
2023-03-22T15:13:55.901Z,22.13
2023-03-22T15:17:55.851Z,22.13
2023-03-22T15:21:55.858Z,22.13
2023-03-22T15:25:55.824Z,22.13
2023-03-22T15:29:55.782Z,22.11
2023-03-22T15:33:55.751Z,22.12
2023-03-22T15:37:55.679Z,22.11
2023-03-22T15:41:55.665Z,22.10
2023-03-22T15:45:55.642Z,22.09
2023-03-22T15:49:55.578Z,22.08
2023-03-22T15:53:55.565Z,22.08
2023-03-22T15:57:55.511Z,22.07
2023-03-22T16:01:55.510Z,22.06
2023-03-22T16:05:55.450Z,22.06
2023-03-22T16:09:55.555Z,22.05
2023-03-22T16:13:55.607Z,22.03
2023-03-22T16:17:55.730Z,22.02
2023-03-22T16:21:55.808Z,22.01
2023-03-22T16:25:55.955Z,22.00
2023-03-22T16:29:56.071Z,21.98
2023-03-22T16:33:56.121Z,21.97
2023-03-22T16:37:56.244Z,21.96
2023-03-22T16:41:56.283Z,21.94
2023-03-22T16:45:56.452Z,21.94
2023-03-22T16:49:56.521Z,21.92
2023-03-22T16:53:56.587Z,21.91
2023-03-22T16:57:56.720Z,21.90
2023-03-22T17:01:56.857Z,21.91
2023-03-22T17:05:56.926Z,21.89
2023-03-22T17:09:57.074Z,21.88
2023-03-22T17:13:57.155Z,21.87
2023-03-22T17:17:57.302Z,21.86
2023-03-22T17:21:57.397Z,21.84
2023-03-22T17:25:57.520Z,21.82
2023-03-22T17:29:57.669Z,21.82
2023-03-22T17:33:57.820Z,21.81
2023-03-22T17:37:58.653Z,21.80
2023-03-22T17:41:58.054Z,21.78
2023-03-22T17:46:38.388Z,21.78
2023-03-22T17:49:59.190Z,21.76
2023-03-22T17:54:40.563Z,21.75
2023-03-22T17:58:27.541Z,21.74
2023-03-22T18:01:59.157Z,21.74
2023-03-22T18:05:58.057Z,21.70
2023-03-22T18:09:58.004Z,21.66
2023-03-22T18:14:10.714Z,21.63
2023-03-22T18:17:58.972Z,21.60
2023-03-22T18:21:57.935Z,21.57
2023-03-22T18:25:58.157Z,21.54
2023-03-22T18:29:58.054Z,21.48
2023-03-22T18:33:58.053Z,21.40
2023-03-22T18:37:57.955Z,21.38
2023-03-22T18:42:05.282Z,21.36
2023-03-22T18:49:58.875Z,21.36
2023-03-22T18:53:57.857Z,21.31
2023-03-22T18:57:57.807Z,21.26
2023-03-22T19:02:09.783Z,21.24
2023-03-22T19:05:58.727Z,21.21
2023-03-22T19:09:57.688Z,21.17
2023-03-22T19:14:49.564Z,21.12
2023-03-22T19:17:58.660Z,21.10
2023-03-22T19:21:58.115Z,21.10
2023-03-22T19:25:57.548Z,21.12
2023-03-22T19:29:57.513Z,21.12
2023-03-22T19:33:57.469Z,21.08
2023-03-22T19:37:57.431Z,21.04
2023-03-22T19:42:05.409Z,21.01
2023-03-22T19:45:58.368Z,20.93
2023-03-22T19:49:57.349Z,20.92
2023-03-22T19:57:57.265Z,20.84
2023-03-22T20:01:57.235Z,20.80
2023-03-22T20:05:57.485Z,20.79
2023-03-22T20:09:57.170Z,20.75
2023-03-22T20:13:57.108Z,20.68
2023-03-22T20:17:57.098Z,20.68
2023-03-22T20:21:57.030Z,20.65
2023-03-22T20:25:56.988Z,20.66
2023-03-22T20:29:56.960Z,20.62
2023-03-22T20:33:56.931Z,20.62
2023-03-22T20:37:56.896Z,20.59
2023-03-22T20:41:57.019Z,20.54
2023-03-22T20:45:57.141Z,20.58
2023-03-22T20:49:57.282Z,20.51
2023-03-22T20:53:57.413Z,20.53
2023-03-22T20:57:57.560Z,20.45
2023-03-22T21:01:57.697Z,20.38
2023-03-22T21:05:57.848Z,20.39
2023-03-22T21:09:57.956Z,20.35
2023-03-22T21:13:58.136Z,20.31
2023-03-22T21:17:58.262Z,20.28
2023-03-22T21:22:04.921Z,20.28
2023-03-22T21:25:59.390Z,20.24
2023-03-22T21:29:58.358Z,20.21
2023-03-22T21:33:59.566Z,20.20
2023-03-22T21:37:58.569Z,20.17
2023-03-22T21:41:58.563Z,20.15
2023-03-22T21:45:58.516Z,20.15
2023-03-22T21:49:58.493Z,20.10
2023-03-22T21:53:58.437Z,20.09
2023-03-22T21:57:58.414Z,20.05
2023-03-22T22:01:58.376Z,20.03
2023-03-22T22:05:58.342Z,19.98
2023-03-22T22:09:58.307Z,20.04
2023-03-22T22:13:58.261Z,19.94
2023-03-22T22:17:58.207Z,19.92
2023-03-22T22:21:58.186Z,19.89
2023-03-22T22:25:58.166Z,19.87
2023-03-22T22:29:58.125Z,19.88
2023-03-22T22:33:58.084Z,19.93
2023-03-22T22:37:58.060Z,19.81
2023-03-22T22:41:58.006Z,19.89
2023-03-22T22:45:57.969Z,19.86
2023-03-22T22:49:57.917Z,19.73
2023-03-22T22:53:57.917Z,19.69
2023-03-22T22:57:57.850Z,19.67
2023-03-22T23:01:57.831Z,19.65
2023-03-22T23:05:57.777Z,19.63
2023-03-22T23:09:57.745Z,19.63
2023-03-22T23:13:57.746Z,19.65
2023-03-22T23:18:03.206Z,19.65
2023-03-22T23:21:58.778Z,19.62
2023-03-22T23:25:57.675Z,19.55
2023-03-22T23:29:57.708Z,19.55
2023-03-22T23:33:57.596Z,19.60
2023-03-22T23:37:57.601Z,19.53
2023-03-22T23:41:57.556Z,19.52
2023-03-22T23:45:57.505Z,19.42
2023-03-22T23:50:04.602Z,19.38
2023-03-22T23:53:57.441Z,19.35
2023-03-22T23:57:57.407Z,19.37
